Time;durP1;ratioP1;P1;durP2;ratioP2;P2;SDS_P1;SDS_P2;PMS_P1;PMS_P2;Temp;Humidity;BMP_temperature;BMP_pressure;BME280_temperature;BME280_humidity;BME280_pressure;Samples;Min_cycle;Max_cycle;Signal;HPM_P1;HPM_P2
2022/09/06 09:56:14;;;;;;;2.65;1.50;;;24.20;41.00;;;;;;5127144;27;20174;-12
2022/09/06 09:58:40;;;;;;;2.63;1.50;;;24.40;40.90;;;;;;5105991;28;20143;-11
2022/09/06 10:01:13;;;;;;;5.22;1.67;;;24.50;40.70;;;;;;5105837;28;20127;-12
2022/09/06 10:03:38;;;;;;;3.33;1.35;;;24.60;40.80;;;;;;5105891;28;20086;-10
2022/09/06 10:06:08;;;;;;;5.93;1.63;;;24.60;40.70;;;;;;5106277;28;20488;-10
2022/09/06 10:08:39;;;;;;;5.05;1.35;;;24.70;40.60;;;;;;5106468;28;20059;-10
2022/09/06 10:11:04;;;;;;;2.05;1.40;;;24.70;40.40;;;;;;5106116;28;20048;-10
2022/09/06 10:13:31;;;;;;;2.75;1.60;;;24.80;40.40;;;;;;5087596;28;20103;-10
2022/09/06 10:15:58;;;;;;;2.00;1.23;;;24.80;40.10;;;;;;5105758;28;20408;-10
2022/09/06 10:18:29;;;;;;;2.75;1.67;;;24.80;40.10;;;;;;5106016;28;20067;-10
2022/09/06 10:21:00;;;;;;;;;;;24.80;40.10;;;;;;5106381;28;20052;-10
2022/09/06 10:23:55;;;;;;;2.17;1.50;;;24.80;40.20;;;;;;5105966;28;19924;-10
2022/09/06 10:26:50;;;;;;;2.35;1.60;;;24.90;40.10;;;;;;5105695;28;20195;-10
2022/09/06 10:29:34;;;;;;;2.13;1.55;;;24.90;39.90;;;;;;5105405;28;20067;-9
2022/09/06 10:32:18;;;;;;;2.25;1.35;;;25.00;39.90;;;;;;5105639;28;20100;-10
2022/09/06 10:34:53;;;;;;;3.75;1.60;;;25.00;39.90;;;;;;5105485;28;20135;-10
2022/09/06 10:37:42;;;;;;;2.58;1.38;;;24.90;39.90;;;;;;5105685;28;20076;-10
2022/09/06 10:40:10;;;;;;;3.22;1.85;;;25.00;39.80;;;;;;5105532;28;20143;-10
2022/09/06 10:42:45;;;;;;;3.50;1.50;;;25.00;39.80;;;;;;5105772;28;20056;-10
2022/09/06 10:45:30;;;;;;;3.08;1.60;;;25.00;39.80;;;;;;5105340;28;20058;-10
2022/09/06 10:47:58;;;;;;;3.28;1.83;;;25.00;39.80;;;;;;5105320;28;20062;-10
2022/09/06 10:50:55;;;;;;;2.45;1.60;;;25.00;39.70;;;;;;5105986;28;20135;-10
2022/09/06 10:53:45;;;;;;;2.90;1.65;;;25.00;39.80;;;;;;5105241;28;20051;-10
2022/09/06 10:56:17;;;;;;;3.58;1.50;;;25.00;39.70;;;;;;5097441;28;20048;-10
2022/09/06 10:59:00;;;;;;;2.80;1.75;;;25.00;39.80;;;;;;5091731;28;20180;-11
2022/09/06 11:01:40;;;;;;;2.22;1.42;;;25.00;39.70;;;;;;5091933;28;20087;-10
2022/09/06 11:04:10;;;;;;;3.92;1.83;;;25.00;39.60;;;;;;5092024;28;20504;-10
2022/09/06 11:06:54;;;;;;;1.67;1.47;;;25.00;39.60;;;;;;5091737;28;20052;-10
2022/09/06 11:09:37;;;;;;;1.90;1.52;;;25.10;39.60;;;;;;5091752;28;20104;-10
2022/09/06 11:12:21;;;;;;;2.00;1.48;;;25.10;39.60;;;;;;5091683;28;20048;-10
2022/09/06 11:14:48;;;;;;;3.88;1.75;;;25.10;39.70;;;;;;5091944;28;20497;-10
2022/09/06 11:17:42;;;;;;;4.15;1.50;;;25.10;39.60;;;;;;5091676;28;20502;-11
2022/09/06 11:20:28;;;;;;;3.90;1.52;;;25.10;39.50;;;;;;5080285;28;20059;-10
2022/09/06 11:23:00;;;;;;;6.38;1.45;;;25.20;39.60;;;;;;5091625;28;20188;-10
2022/09/06 11:26:01;;;;;;;2.72;1.67;;;25.10;39.50;;;;;;5091511;28;20543;-11
2022/09/06 11:28:53;;;;;;;4.85;1.35;;;25.10;39.50;;;;;;5091380;28;20055;-11
2022/09/06 11:31:28;;;;;;;6.03;1.98;;;25.10;39.50;;;;;;5091318;28;20052;-11
2022/09/06 11:34:29;;;;;;;1.88;1.42;;;25.10;39.50;;;;;;5091241;28;20048;-11
2022/09/06 11:36:56;;;;;;;1.70;1.38;;;25.10;39.60;;;;;;5090838;28;20105;-11
2022/09/06 11:39:32;;;;;;;1.95;1.48;;;25.10;39.50;;;;;;5091183;28;20488;-11
2022/09/06 11:41:59;;;;;;;1.90;1.40;;;25.10;39.50;;;;;;5091182;28;20052;-11
2022/09/06 11:44:49;;;;;;;3.08;1.95;;;25.10;39.50;;;;;;5090953;28;20101;-11
2022/09/06 11:47:37;;;;;;;2.88;1.48;;;25.20;39.50;;;;;;5090857;28;20560;-11
2022/09/06 11:50:21;;;;;;;2.00;1.45;;;25.20;39.40;;;;;;5091329;28;20048;-11
2022/09/06 11:53:05;;;;;;;3.15;1.40;;;25.20;39.40;;;;;;5091607;28;20112;-11
2022/09/06 11:55:40;;;;;;;3.40;1.50;;;25.20;39.40;;;;;;5090790;28;20156;-11
2022/09/06 11:58:28;;;;;;;1.48;1.35;;;25.20;39.40;;;;;;5091001;28;20080;-11
2022/09/06 12:01:17;;;;;;;2.40;1.35;;;25.20;39.40;;;;;;5090808;28;20044;-11
2022/09/06 12:03:52;;;;;;;2.17;1.60;;;25.20;39.40;;;;;;5091424;27;20404;-10
2022/09/06 12:06:29;;;;;;;2.10;1.15;;;25.20;39.50;;;;;;5090655;28;20052;-11
2022/09/06 12:08:55;;;;;;;2.55;1.60;;;25.20;39.50;;;;;;5089600;28;20480;-11
2022/09/06 12:11:31;;;;;;;3.83;1.30;;;25.20;39.40;;;;;;5091016;27;20456;-11
2022/09/06 12:14:26;;;;;;;4.43;1.50;;;25.20;39.40;;;;;;5090726;28;20119;-11
2022/09/06 12:16:57;;;;;;;2.15;1.60;;;25.20;39.40;;;;;;5090771;28;20052;-11
2022/09/06 12:20:05;;;;;;;1.60;1.50;;;25.20;39.40;;;;;;5090394;28;20055;-11
2022/09/06 12:22:31;;;;;;;1.98;1.40;;;25.20;39.40;;;;;;5090898;28;20063;-11
2022/09/06 12:25:00;;;;;;;2.08;1.65;;;25.20;39.30;;;;;;5091188;28;20044;-11
2022/09/06 12:27:29;;;;;;;2.58;1.50;;;25.20;39.30;;;;;;5090676;28;20063;-11
2022/09/06 12:30:00;;;;;;;2.10;1.52;;;25.20;39.20;;;;;;5090617;28;20048;-11
2022/09/06 12:32:45;;;;;;;2.22;1.38;;;25.20;39.20;;;;;;5090945;28;20135;-11
2022/09/06 12:35:19;;;;;;;1.65;1.23;;;25.20;39.30;;;;;;5090403;28;20130;-11
2022/09/06 12:38:02;;;;;;;1.45;1.35;;;25.20;39.20;;;;;;5090228;28;20083;-11
2022/09/06 12:40:31;;;;;;;1.70;1.48;;;25.20;39.20;;;;;;5090471;28;20112;-11
2022/09/06 12:42:57;;;;;;;1.45;1.35;;;25.20;39.20;;;;;;5090376;28;20056;-11
2022/09/06 12:45:24;;;;;;;1.67;1.55;;;25.20;39.20;;;;;;5090402;28;20075;-11
2022/09/06 12:48:01;;;;;;;4.80;1.45;;;25.20;39.20;;;;;;5090852;28;20074;-11
2022/09/06 12:50:30;;;;;;;3.22;1.58;;;25.20;39.20;;;;;;5090687;28;20073;-11
2022/09/06 12:52:59;;;;;;;1.75;1.40;;;25.20;39.20;;;;;;5090420;28;20071;-11
2022/09/06 12:55:33;;;;;;;2.95;1.52;;;25.20;39.30;;;;;;5090299;28;20104;-11
2022/09/06 12:58:11;;;;;;;1.40;1.23;;;25.20;39.20;;;;;;5090224;28;20056;-11
2022/09/06 13:00:51;;;;;;;1.60;1.23;;;25.20;39.40;;;;;;5090567;28;20056;-11
2022/09/06 13:03:39;;;;;;;1.92;1.50;;;25.20;39.40;;;;;;5090211;28;20051;-11
2022/09/06 13:06:06;;;;;;;3.72;1.63;;;25.20;39.30;;;;;;5090036;28;20048;-11
2022/09/06 13:08:45;;;;;;;1.58;1.30;;;25.20;39.30;;;;;;5090138;28;20469;-11
2022/09/06 13:11:15;;;;;;;1.70;1.27;;;25.20;39.30;;;;;;5090441;28;20077;-11
2022/09/06 13:13:49;;;;;;;8.90;1.60;;;25.20;39.30;;;;;;5089890;28;20044;-11
2022/09/06 13:16:23;;;;;;;3.85;1.25;;;25.20;39.30;;;;;;5089947;28;20060;-11
2022/09/06 13:18:49;;;;;;;2.17;1.52;;;25.20;39.40;;;;;;5089546;28;20074;-11
2022/09/06 13:21:29;;;;;;;3.53;1.70;;;25.20;39.30;;;;;;5089910;28;20051;-11
2022/09/06 13:23:57;;;;;;;4.28;1.67;;;25.20;39.30;;;;;;5089985;28;20048;-11
2022/09/06 13:26:37;;;;;;;1.77;1.42;;;25.20;39.30;;;;;;5090100;28;20052;-11
2022/09/06 13:29:23;;;;;;;1.95;1.17;;;25.20;39.40;;;;;;5089867;28;20100;-11
2022/09/06 13:31:54;;;;;;;1.85;1.50;;;25.10;39.40;;;;;;5086921;28;20048;-11
2022/09/06 13:34:26;;;;;;;2.67;1.50;;;25.10;39.40;;;;;;5089531;28;20052;-11
2022/09/06 13:36:58;;;;;;;2.70;1.40;;;25.10;39.50;;;;;;5089642;28;20052;-11
2022/09/06 13:39:32;;;;;;;1.88;1.30;;;25.10;39.50;;;;;;5089657;28;20056;-11
2022/09/06 13:42:06;;;;;;;1.40;1.30;;;25.10;39.50;;;;;;5089654;28;20408;-11
2022/09/06 13:44:34;;;;;;;6.72;1.58;;;25.10;39.50;;;;;;5089796;28;20056;-11
2022/09/06 13:47:00;;;;;;;1.30;1.20;;;25.10;39.50;;;;;;5089450;28;20139;-11
2022/09/06 13:49:27;;;;;;;1.55;1.40;;;25.10;39.60;;;;;;5089487;28;20100;-11
2022/09/06 13:51:56;;;;;;;2.25;1.52;;;25.10;39.60;;;;;;5089829;28;20134;-11
2022/09/06 13:54:22;;;;;;;2.38;1.20;;;25.10;39.60;;;;;;5085079;28;20119;-11
2022/09/06 13:56:49;;;;;;;1.45;1.30;;;25.10;39.60;;;;;;5089773;28;21366;-11
2022/09/06 13:59:15;;;;;;;2.78;1.75;;;25.10;39.70;;;;;;5089863;28;20048;-11
2022/09/06 14:01:43;;;;;;;1.30;1.13;;;25.10;39.70;;;;;;5089273;28;20507;-11
2022/09/06 14:04:11;;;;;;;1.33;1.15;;;25.00;39.60;;;;;;5089350;28;20055;-11
2022/09/06 14:06:37;;;;;;;3.30;1.35;;;25.00;39.60;;;;;;5089595;28;20048;-11
2022/09/06 14:09:03;;;;;;;1.45;1.33;;;25.00;39.60;;;;;;5089441;28;20052;-11
2022/09/06 14:11:29;;;;;;;1.33;1.23;;;25.00;39.70;;;;;;5089041;28;20103;-11
2022/09/06 14:13:54;;;;;;;1.38;1.27;;;25.00;39.60;;;;;;5089645;28;20052;-10
2022/09/06 14:16:20;;;;;;;1.65;1.40;;;25.00;39.60;;;;;;5089046;28;20063;-9
2022/09/06 14:18:46;;;;;;;1.80;1.25;;;25.00;39.60;;;;;;5089249;28;20541;-10
2022/09/06 14:21:12;;;;;;;3.20;1.30;;;25.00;39.70;;;;;;5089059;28;20058;-10
2022/09/06 14:23:38;;;;;;;2.72;1.40;;;25.00;39.70;;;;;;5088890;28;20048;-10
2022/09/06 14:26:04;;;;;;;3.45;1.50;;;24.90;39.80;;;;;;5088937;28;20060;-10
2022/09/06 14:28:40;;;;;;;1.50;1.27;;;25.00;39.80;;;;;;5088978;28;20079;-10
2022/09/06 14:31:24;;;;;;;2.70;1.40;;;24.90;39.90;;;;;;5089922;28;20064;-10
2022/09/06 14:33:49;;;;;;;2.92;1.25;;;24.90;39.80;;;;;;5091898;28;20056;-10
2022/09/06 14:36:17;;;;;;;1.98;1.30;;;24.90;39.90;;;;;;5092088;28;20078;-10
2022/09/06 14:38:44;;;;;;;2.75;1.30;;;24.90;40.00;;;;;;5092205;28;20056;-10
2022/09/06 14:41:13;;;;;;;1.63;1.48;;;24.90;40.00;;;;;;5091800;28;20056;-10
2022/09/06 14:43:40;;;;;;;2.78;1.35;;;24.90;40.00;;;;;;5091778;28;20143;-10
2022/09/06 14:46:08;;;;;;;1.60;1.50;;;24.90;39.90;;;;;;5092246;28;20052;-10
2022/09/06 14:48:35;;;;;;;3.42;1.52;;;24.90;39.90;;;;;;5092138;28;20561;-10
2022/09/06 14:51:12;;;;;;;1.33;1.20;;;24.90;39.80;;;;;;5092097;28;20044;-10
2022/09/06 14:53:40;;;;;;;1.42;1.25;;;24.90;40.40;;;;;;5091696;28;20135;-10
2022/09/06 14:56:06;;;;;;;1.45;1.23;;;24.90;39.80;;;;;;5091759;28;20102;-10
2022/09/06 14:58:33;;;;;;;2.60;1.70;;;24.90;39.80;;;;;;5091823;28;20052;-10
2022/09/06 15:01:09;;;;;;;2.47;1.38;;;24.90;39.90;;;;;;5092223;28;20052;-10
2022/09/06 15:03:35;;;;;;;2.65;1.55;;;24.90;39.90;;;;;;5092038;28;20096;-10
2022/09/06 15:06:01;;;;;;;1.77;1.58;;;24.90;39.90;;;;;;5091591;28;20126;-10
2022/09/06 15:08:27;;;;;;;1.90;1.25;;;24.90;39.90;;;;;;5091597;28;20063;-10
2022/09/06 15:10:53;;;;;;;1.63;1.50;;;24.90;40.00;;;;;;5092187;28;20409;-9
2022/09/06 15:13:19;;;;;;;1.63;1.50;;;24.90;40.00;;;;;;5091659;28;20396;-10
2022/09/06 15:15:44;;;;;;;1.52;1.42;;;25.00;39.90;;;;;;5091763;28;20048;-10
2022/09/06 15:18:11;;;;;;;1.40;1.30;;;24.90;39.90;;;;;;5091960;28;20080;-10
2022/09/06 15:20:36;;;;;;;2.35;1.83;;;24.90;39.90;;;;;;5091581;28;20100;-10
2022/09/06 15:23:04;;;;;;;3.47;1.58;;;24.90;39.80;;;;;;5091513;28;20052;-10
2022/09/06 15:25:30;;;;;;;2.17;1.70;;;24.90;40.30;;;;;;5091499;28;20135;-10
2022/09/06 15:27:56;;;;;;;1.20;1.10;;;24.90;39.80;;;;;;5091726;28;20060;-10
2022/09/06 15:30:22;;;;;;;2.47;1.42;;;24.90;39.80;;;;;;5091246;28;20551;-10
2022/09/06 15:32:47;;;;;;;1.67;1.45;;;24.90;39.90;;;;;;5091361;28;20059;-10
2022/09/06 15:35:14;;;;;;;4.40;1.35;;;24.90;39.90;;;;;;5091230;28;20052;-9
2022/09/06 15:37:39;;;;;;;2.53;1.30;;;24.90;39.90;;;;;;5091353;28;20052;-10
2022/09/06 15:40:05;;;;;;;3.55;1.48;;;24.90;39.90;;;;;;5091289;28;20492;-10
2022/09/06 15:42:31;;;;;;;2.22;1.40;;;25.00;39.90;;;;;;5090995;28;20052;-10
2022/09/06 15:44:56;;;;;;;1.60;1.40;;;24.90;39.90;;;;;;5091120;28;20404;-10
2022/09/06 15:47:23;;;;;;;1.58;1.48;;;24.90;39.90;;;;;;5091270;28;20052;-10
2022/09/06 15:49:49;;;;;;;1.85;1.55;;;25.00;39.90;;;;;;5091622;28;20504;-10
2022/09/06 15:52:15;;;;;;;1.30;1.20;;;25.00;39.90;;;;;;5091524;28;20044;-10
2022/09/06 15:57:25;;;;;;;1.40;1.30;;;24.90;39.90;;;;;;5091423;28;20126;-10
2022/09/06 15:59:52;;;;;;;1.60;1.50;;;24.90;39.90;;;;;;5090854;28;20052;-10
2022/09/06 16:02:18;;;;;;;1.67;1.58;;;24.90;39.90;;;;;;5091213;28;20059;-10
2022/09/06 16:04:45;;;;;;;3.53;1.50;;;25.00;39.90;;;;;;5091481;28;20504;-10
2022/09/06 16:07:11;;;;;;;2.67;1.35;;;25.00;39.90;;;;;;5091373;28;20144;-10
2022/09/06 16:09:36;;;;;;;1.52;1.20;;;25.00;39.90;;;;;;5091220;28;20097;-10
2022/09/06 16:12:02;;;;;;;2.00;1.80;;;25.00;39.80;;;;;;5091294;28;20104;-10
2022/09/06 16:14:28;;;;;;;1.40;1.23;;;25.00;39.80;;;;;;5091158;28;20059;-10
2022/09/06 16:16:55;;;;;;;3.83;1.67;;;25.00;39.80;;;;;;5090573;28;20062;-9
2022/09/06 16:19:21;;;;;;;2.78;1.50;;;25.00;39.70;;;;;;5090632;28;20135;-9
2022/09/06 16:21:46;;;;;;;1.85;1.50;;;25.00;39.70;;;;;;5090703;28;20067;-10
2022/09/06 16:24:13;;;;;;;2.13;1.73;;;25.00;39.80;;;;;;5091250;28;20048;-10
2022/09/06 16:26:45;;;;;;;5.43;1.58;;;25.00;39.80;;;;;;5090919;28;20059;-10
2022/09/06 16:29:12;;;;;;;1.75;1.25;;;25.00;39.80;;;;;;5090410;28;20079;-10
2022/09/06 16:31:38;;;;;;;2.35;1.50;;;25.00;39.80;;;;;;5090451;28;20048;-10
2022/09/06 16:34:04;;;;;;;2.10;1.50;;;25.00;39.70;;;;;;5090542;28;20044;-10
2022/09/06 16:36:29;;;;;;;1.77;1.45;;;25.00;39.60;;;;;;5091187;28;20052;-10
2022/09/06 16:38:56;;;;;;;1.70;1.60;;;25.00;39.60;;;;;;5090440;28;20067;-10
2022/09/06 16:41:28;;;;;;;3.58;1.42;;;25.00;39.70;;;;;;5090610;28;20044;-10
2022/09/06 16:43:54;;;;;;;1.73;1.50;;;25.00;39.70;;;;;;5090545;28;20056;-10
2022/09/06 16:46:22;;;;;;;1.77;1.48;;;25.10;39.70;;;;;;5091151;28;20052;-10
2022/09/06 16:48:52;;;;;;;1.83;1.52;;;25.10;39.70;;;;;;5090677;28;20104;-10
2022/09/06 16:51:20;;;;;;;1.75;1.42;;;25.00;39.70;;;;;;5091003;28;20048;-10
2022/09/06 16:53:46;;;;;;;1.77;1.65;;;25.00;39.80;;;;;;5089471;28;20063;-10
2022/09/06 16:56:14;;;;;;;1.60;1.40;;;25.00;39.90;;;;;;5090353;28;20449;-10
2022/09/06 16:58:41;;;;;;;3.08;1.30;;;25.00;39.80;;;;;;5090030;28;20508;-10
2022/09/06 17:01:08;;;;;;;2.90;1.60;;;25.00;39.80;;;;;;5090221;28;20063;-10
2022/09/06 17:03:38;;;;;;;1.40;1.30;;;25.00;39.80;;;;;;5090710;28;20138;-10
2022/09/06 17:06:05;;;;;;;2.95;1.45;;;25.00;39.80;;;;;;5090211;28;20075;-9
2022/09/06 17:08:31;;;;;;;2.80;1.35;;;25.00;39.80;;;;;;5090080;28;20107;-9
2022/09/06 17:11:01;;;;;;;3.45;1.35;;;25.00;39.90;;;;;;5090166;28;20104;-9
2022/09/06 17:13:28;;;;;;;1.88;1.50;;;25.00;39.90;;;;;;5072278;28;20063;-9
2022/09/06 17:18:38;;;;;;;1.98;1.55;;;24.90;40.00;;;;;;5089848;28;20126;-9
2022/09/06 17:21:04;;;;;;;1.92;1.60;;;24.90;40.10;;;;;;5090043;28;20062;-10
2022/09/06 17:23:30;;;;;;;1.70;1.50;;;24.90;40.10;;;;;;5089999;28;20052;-10
2022/09/06 17:25:56;;;;;;;1.45;1.30;;;24.90;40.20;;;;;;5089906;28;20052;-10
2022/09/06 17:28:22;;;;;;;1.63;1.15;;;24.90;40.20;;;;;;5089626;28;20116;-10
2022/09/06 17:30:48;;;;;;;1.42;1.33;;;24.80;40.20;;;;;;5089884;28;20401;-10
2022/09/06 17:33:16;;;;;;;2.03;1.60;;;24.80;40.20;;;;;;5090222;28;20048;-10
2022/09/06 17:35:43;;;;;;;2.10;1.40;;;24.80;40.20;;;;;;5090405;28;20063;-10
2022/09/06 17:38:08;;;;;;;1.48;1.23;;;24.80;40.30;;;;;;5089569;28;20056;-10
2022/09/06 17:40:34;;;;;;;1.85;1.60;;;24.80;40.30;;;;;;5090006;28;20377;-10
2022/09/06 17:42:59;;;;;;;1.60;1.50;;;24.80;40.30;;;;;;5090045;28;20483;-10
2022/09/06 17:45:25;;;;;;;1.77;1.42;;;24.80;40.40;;;;;;5089966;28;20110;-10
2022/09/06 17:47:51;;;;;;;1.92;1.40;;;24.80;40.40;;;;;;5089466;28;20048;-10
2022/09/06 17:50:16;;;;;;;2.05;1.38;;;24.80;40.30;;;;;;5090004;28;20056;-10
2022/09/06 17:52:42;;;;;;;2.00;1.67;;;24.80;40.30;;;;;;5089590;28;20122;-10
2022/09/06 17:55:08;;;;;;;2.30;1.60;;;24.80;40.40;;;;;;5089746;28;20044;-10
2022/09/06 17:57:33;;;;;;;2.40;1.05;;;24.80;40.40;;;;;;5089457;28;20506;-10
2022/09/06 18:00:01;;;;;;;2.22;1.40;;;24.70;40.40;;;;;;5087381;28;20511;-10
2022/09/06 18:02:26;;;;;;;1.83;1.60;;;24.70;40.40;;;;;;5089422;28;20066;-10
2022/09/06 18:04:52;;;;;;;2.53;1.40;;;24.70;40.50;;;;;;5089400;28;20489;-10
2022/09/06 18:07:18;;;;;;;1.30;1.20;;;24.70;40.50;;;;;;5073719;28;20048;-9
2022/09/06 18:09:44;;;;;;;1.92;1.75;;;24.70;40.50;;;;;;5093029;28;20052;-10
2022/09/06 18:12:10;;;;;;;3.03;1.45;;;24.70;40.50;;;;;;5092296;28;20048;-10
2022/09/06 18:14:35;;;;;;;1.40;1.30;;;24.70;40.50;;;;;;5092361;28;20511;-10
2022/09/06 18:17:01;;;;;;;1.17;1.13;;;24.70;40.60;;;;;;5092189;28;20054;-10
2022/09/06 18:19:27;;;;;;;1.50;1.38;;;24.70;40.60;;;;;;5092344;28;20048;-10
2022/09/06 18:21:54;;;;;;;1.52;1.08;;;24.70;40.70;;;;;;5092080;28;20056;-10
2022/09/06 18:24:19;;;;;;;1.40;1.27;;;24.70;40.70;;;;;;5092245;28;20048;-10
2022/09/06 18:26:45;;;;;;;2.20;1.40;;;24.70;40.80;;;;;;5092527;28;20909;-10
2022/09/06 18:29:13;;;;;;;1.50;1.40;;;24.70;40.70;;;;;;5092131;28;20108;-10
2022/09/06 18:31:39;;;;;;;1.45;1.33;;;24.60;40.70;;;;;;5092161;28;20065;-10
2022/09/06 18:34:07;;;;;;;1.38;1.27;;;24.70;40.80;;;;;;5092362;28;20083;-10
2022/09/06 18:36:33;;;;;;;1.45;1.30;;;24.70;40.80;;;;;;5092043;28;20056;-10
2022/09/06 18:39:02;;;;;;;1.40;1.30;;;24.70;40.80;;;;;;5092097;28;20080;-10
2022/09/06 18:44:13;;;;;;;1.88;1.20;;;24.60;40.70;;;;;;5092284;28;20049;-10
2022/09/06 18:46:38;;;;;;;1.23;1.17;;;24.60;40.70;;;;;;5092627;28;20052;-10
2022/09/06 18:49:04;;;;;;;1.65;1.55;;;24.60;40.70;;;;;;5091839;28;20382;-10
2022/09/06 18:51:30;;;;;;;1.33;1.23;;;24.70;40.80;;;;;;5091890;28;20386;-10
2022/09/06 18:53:58;;;;;;;2.83;1.40;;;24.60;40.70;;;;;;5091815;28;20052;-9
2022/09/06 18:56:25;;;;;;;1.67;1.27;;;24.70;40.70;;;;;;5091900;28;20052;-9
2022/09/06 18:58:53;;;;;;;1.20;1.10;;;24.60;40.70;;;;;;5091879;28;20052;-9
2022/09/06 19:01:20;;;;;;;2.22;1.35;;;24.60;40.80;;;;;;5091835;28;20056;-9
2022/09/06 19:03:45;;;;;;;2.95;1.45;;;24.60;40.80;;;;;;5092015;28;20236;-10
2022/09/06 19:06:12;;;;;;;4.32;1.75;;;24.60;40.80;;;;;;5091890;28;20404;-10
2022/09/06 19:08:39;;;;;;;1.40;1.30;;;24.60;40.80;;;;;;5092057;28;20087;-10
2022/09/06 19:11:08;;;;;;;2.90;1.27;;;24.60;40.80;;;;;;5091686;28;20152;-10
2022/09/06 19:13:38;;;;;;;1.33;1.20;;;24.60;40.80;;;;;;5091659;28;20139;-10
2022/09/06 19:16:05;;;;;;;1.48;1.38;;;24.60;40.90;;;;;;5092113;28;20051;-10
2022/09/06 19:18:32;;;;;;;2.55;1.23;;;24.60;40.90;;;;;;5091539;28;20048;-10
2022/09/06 19:21:00;;;;;;;1.42;1.33;;;24.60;40.90;;;;;;5091885;28;20044;-10
2022/09/06 19:23:27;;;;;;;1.80;1.52;;;24.60;40.90;;;;;;5091547;28;20055;-10
2022/09/06 19:26:15;;;;;;;1.27;1.17;;;24.60;40.90;;;;;;5091524;28;20148;-10
2022/09/06 19:28:45;;;;;;;1.40;1.17;;;24.60;40.80;;;;;;5091622;28;20059;-10
2022/09/06 19:31:13;;;;;;;1.08;1.00;;;24.60;40.80;;;;;;5091858;28;20071;-10
2022/09/06 19:33:40;;;;;;;2.08;1.30;;;24.70;40.80;;;;;;5091672;28;20503;-10
2022/09/06 19:36:05;;;;;;;1.17;1.08;;;24.70;40.90;;;;;;5091309;28;20425;-10
2022/09/06 19:38:31;;;;;;;2.17;1.50;;;24.60;40.80;;;;;;5091347;28;20099;-10
2022/09/06 19:41:16;;;;;;;1.55;1.13;;;24.60;40.90;;;;;;5091135;28;20052;-10
2022/09/06 19:43:43;;;;;;;1.80;1.25;;;24.60;41.00;;;;;;5091364;28;20044;-10
2022/09/06 19:46:10;;;;;;;1.45;1.30;;;24.60;41.00;;;;;;5091264;28;20488;-10
2022/09/06 19:48:43;;;;;;;1.30;1.20;;;24.60;41.00;;;;;;5091473;28;20132;-10
2022/09/06 19:51:09;;;;;;;1.70;1.33;;;24.50;41.00;;;;;;5091529;28;20060;-10
2022/09/06 19:53:36;;;;;;;1.40;1.30;;;24.60;41.00;;;;;;5091254;28;20112;-10
2022/09/06 19:56:23;;;;;;;1.40;1.30;;;24.50;41.00;;;;;;5091311;28;20063;-10
2022/09/06 19:58:54;;;;;;;1.15;1.05;;;24.50;41.00;;;;;;5090763;28;20056;-10
2022/09/06 20:01:20;;;;;;;1.50;1.40;;;24.60;41.00;;;;;;5091460;28;20052;-9
2022/09/06 20:03:46;;;;;;;1.63;1.25;;;24.50;41.00;;;;;;5091069;28;20048;-10
2022/09/06 20:06:12;;;;;;;1.30;1.20;;;24.60;41.00;;;;;;5090946;28;20059;-10
2022/09/06 20:08:38;;;;;;;1.60;1.23;;;24.60;41.00;;;;;;5091352;28;20420;-10
2022/09/06 20:11:07;;;;;;;2.05;1.52;;;24.60;40.90;;;;;;5091244;28;20143;-10
2022/09/06 20:13:37;;;;;;;1.80;1.38;;;24.50;41.00;;;;;;5090988;28;20048;-10
2022/09/06 20:16:04;;;;;;;1.83;1.42;;;24.50;41.00;;;;;;5091066;28;20058;-10
2022/09/06 20:18:30;;;;;;;1.50;1.20;;;24.50;41.00;;;;;;5090735;28;20404;-10
2022/09/06 20:20:59;;;;;;;2.28;1.10;;;24.50;41.00;;;;;;5091060;28;20434;-10
2022/09/06 20:23:26;;;;;;;1.85;1.65;;;24.50;41.10;;;;;;5090810;28;20140;-10
2022/09/06 20:25:59;;;;;;;2.28;1.40;;;24.50;41.10;;;;;;5090743;28;20147;-10
2022/09/06 20:28:25;;;;;;;2.00;1.20;;;24.50;41.10;;;;;;5090086;28;20083;-10
2022/09/06 20:30:51;;;;;;;2.20;1.33;;;24.50;41.00;;;;;;5091070;28;20052;-10
2022/09/06 20:33:17;;;;;;;1.67;1.30;;;24.50;41.00;;;;;;5090711;28;20096;-10
2022/09/06 20:35:42;;;;;;;1.40;1.27;;;24.50;41.00;;;;;;5090801;28;20048;-10
2022/09/06 20:38:08;;;;;;;0.98;0.98;;;24.60;41.10;;;;;;5090545;28;20048;-10
2022/09/06 20:40:33;;;;;;;1.20;1.00;;;24.50;41.00;;;;;;5090659;28;20054;-10
2022/09/06 20:43:01;;;;;;;1.42;1.30;;;24.50;41.00;;;;;;5091168;28;20076;-10
2022/09/06 20:45:26;;;;;;;1.45;1.27;;;24.50;41.00;;;;;;5091042;28;20100;-10
2022/09/06 20:47:52;;;;;;;3.38;1.58;;;24.50;41.10;;;;;;5089968;28;20529;-10
2022/09/06 20:50:17;;;;;;;1.05;1.05;;;24.50;41.00;;;;;;5090450;28;20423;-9
2022/09/06 20:52:43;;;;;;;1.30;1.20;;;24.50;41.10;;;;;;5090410;28;20426;-10
2022/09/06 20:55:09;;;;;;;1.27;1.15;;;24.50;41.10;;;;;;5090335;28;20430;-10
2022/09/06 20:57:34;;;;;;;1.58;1.20;;;24.50;41.10;;;;;;5090122;28;20044;-10
2022/09/06 21:00:00;;;;;;;1.75;1.17;;;24.50;41.10;;;;;;5090741;28;20105;-10
2022/09/06 21:02:26;;;;;;;1.20;1.10;;;24.50;41.10;;;;;;5090684;28;20063;-10
2022/09/06 21:04:52;;;;;;;1.60;1.10;;;24.50;41.10;;;;;;5090228;28;20048;-10
2022/09/06 21:07:18;;;;;;;1.23;1.13;;;24.50;41.10;;;;;;5090202;28;20052;-10
2022/09/06 21:09:44;;;;;;;2.15;1.20;;;24.50;41.10;;;;;;5090782;28;20126;-10
2022/09/06 21:12:09;;;;;;;3.80;1.50;;;24.50;41.10;;;;;;5090702;28;20131;-10
2022/09/06 21:14:35;;;;;;;1.50;1.40;;;24.50;41.10;;;;;;5090427;28;20052;-10
2022/09/06 21:17:01;;;;;;;1.40;1.30;;;24.50;41.10;;;;;;5089882;28;20397;-10
2022/09/06 21:19:26;;;;;;;1.25;1.13;;;24.40;41.10;;;;;;5089910;28;20056;-10
2022/09/06 21:21:52;;;;;;;1.52;1.30;;;24.50;41.10;;;;;;5090072;28;20484;-9
2022/09/06 21:24:18;;;;;;;1.70;1.15;;;24.50;41.10;;;;;;5090343;28;20476;-10
2022/09/06 21:26:44;;;;;;;1.88;1.25;;;24.50;41.20;;;;;;5089888;28;20060;-10
2022/09/06 21:29:09;;;;;;;1.63;1.40;;;24.50;41.10;;;;;;5089689;28;20055;-10
2022/09/06 21:31:36;;;;;;;1.20;1.10;;;24.50;41.10;;;;;;5089899;28;20445;-10
2022/09/06 21:34:04;;;;;;;1.27;1.17;;;24.50;41.10;;;;;;5089807;28;20503;-10
2022/09/06 21:36:34;;;;;;;1.75;1.25;;;24.50;41.20;;;;;;5089806;28;20054;-10
2022/09/06 21:39:05;;;;;;;3.37;1.20;;;24.50;41.10;;;;;;5090217;28;20048;-10
2022/09/06 21:41:33;;;;;;;1.52;1.33;;;24.50;41.10;;;;;;5089456;28;20404;-10
2022/09/06 21:44:00;;;;;;;1.38;1.17;;;24.50;41.20;;;;;;5090042;28;20056;-10
2022/09/06 21:46:31;;;;;;;1.65;1.38;;;24.50;41.20;;;;;;5089956;28;20055;-10
2022/09/06 21:48:57;;;;;;;1.35;1.05;;;24.50;41.20;;;;;;5090053;28;20389;-10
2022/09/06 21:51:27;;;;;;;1.58;1.33;;;24.50;41.10;;;;;;5089432;28;20135;-10
2022/09/06 21:53:54;;;;;;;1.20;1.10;;;24.50;41.10;;;;;;5089475;28;20062;-10
2022/09/06 21:56:22;;;;;;;1.67;1.05;;;24.50;41.10;;;;;;5090129;28;20075;-10
2022/09/06 21:58:55;;;;;;;1.45;1.35;;;24.50;41.10;;;;;;5089577;28;20052;-10
2022/09/06 22:01:22;;;;;;;1.30;1.20;;;24.50;41.10;;;;;;5089395;28;20044;-10
2022/09/06 22:03:49;;;;;;;1.52;1.25;;;24.50;41.10;;;;;;5089958;28;20052;-10
2022/09/06 22:06:18;;;;;;;1.25;1.15;;;24.40;41.10;;;;;;5089591;28;20060;-10
2022/09/06 22:08:44;;;;;;;1.48;1.20;;;24.50;41.20;;;;;;5089239;28;20488;-10
2022/09/06 22:11:15;;;;;;;1.10;0.98;;;24.50;41.10;;;;;;5089177;28;20125;-10
2022/09/06 22:13:42;;;;;;;1.42;1.25;;;24.50;41.10;;;;;;5089583;28;20059;-10
2022/09/06 22:16:09;;;;;;;1.65;1.30;;;24.50;41.10;;;;;;5089196;28;20192;-10
2022/09/06 22:18:35;;;;;;;1.45;1.05;;;24.50;41.20;;;;;;5089054;28;20139;-10
2022/09/06 22:21:03;;;;;;;1.75;1.40;;;24.50;41.20;;;;;;5089202;28;20139;-10
2022/09/06 22:23:30;;;;;;;1.40;1.27;;;24.50;41.20;;;;;;5089566;28;20119;-10
2022/09/06 22:26:01;;;;;;;2.85;1.38;;;24.50;41.20;;;;;;5089143;28;20138;-10
2022/09/06 22:28:26;;;;;;;1.60;1.13;;;24.50;41.20;;;;;;5089153;28;20052;-10
2022/09/06 22:30:52;;;;;;;1.38;1.27;;;24.50;41.20;;;;;;5088965;28;20054;-10
2022/09/06 22:33:18;;;;;;;1.25;1.15;;;24.50;41.10;;;;;;5088971;28;20083;-10
2022/09/06 22:35:44;;;;;;;1.30;1.20;;;24.50;41.20;;;;;;5088847;28;20083;-10
2022/09/06 22:38:09;;;;;;;1.30;1.10;;;24.40;41.20;;;;;;5088912;28;20063;-10
2022/09/06 22:40:35;;;;;;;1.05;1.00;;;24.50;41.20;;;;;;5088775;28;20450;-10
2022/09/06 22:43:02;;;;;;;1.30;1.20;;;24.50;41.20;;;;;;5089009;28;20051;-10
2022/09/06 22:45:28;;;;;;;1.20;1.10;;;24.50;41.70;;;;;;5088843;28;20052;-10
2022/09/06 22:47:53;;;;;;;2.25;1.20;;;24.40;41.10;;;;;;5088869;28;20103;-10
2022/09/06 22:50:19;;;;;;;1.70;1.33;;;24.50;41.20;;;;;;5088830;28;20485;-10
2022/09/06 22:52:45;;;;;;;1.25;1.15;;;24.50;41.20;;;;;;5090522;28;20048;-10
2022/09/06 22:55:10;;;;;;;1.38;1.27;;;24.40;41.20;;;;;;5092149;28;20078;-10
2022/09/06 22:57:36;;;;;;;1.13;1.02;;;24.40;41.20;;;;;;5091854;28;20071;-10
2022/09/06 23:00:04;;;;;;;1.50;1.40;;;24.50;41.30;;;;;;5091659;28;20085;-10
2022/09/06 23:02:30;;;;;;;1.23;1.10;;;24.50;41.20;;;;;;5073607;27;20445;-10
2022/09/06 23:04:57;;;;;;;2.00;1.25;;;24.40;41.20;;;;;;5091705;28;20048;-10